Hornepayne, Canada
Current Conditions -  °F | °C
As of 7:00 PM on Sunday 21 Dec 2014 (Local Time) from CYXZ Reporting Station
Light Snow Light Snow  
Wind Chill: 18°   Ceiling: 1800
Heat Index: 28°   Visibility: 15mi
Dew Point: 25°   Wind: 12mph
Humidity: 86%   Direction: 160°SSE
Pressure: 30.03"   Gusts: 20mph
Location:  49.22°N, 84.78°W
Report Text: CYXZ 220000Z 16010G17KT 15SM -SN OVC018 M02/M04 A3003 RMK SC8 LAST OBS/NEXT 221100UTC SLP187
Loading
Personal Weather Stations






























Interactive Weather Map New forecast layout! Learn more

10-Day Weather Forecast

Advertisements
Track Severe Weather on mobile